METAR Data
IDs: Format: Raw Decoded Include TAF

Data at: 0349 UTC 18 Jun 2019

PASK 180256Z AUTO 04019KT 10SM FEW070 SCT080 19/06 A2970 RMK AO2 SLP055 6//// T01940061 $
PASK 180156Z AUTO 04020KT 10SM CLR 20/06 A2969 RMK AO2 SLP053 T02000061 $
PASK 180056Z AUTO 04018G24KT 10SM CLR 19/06 A2970 RMK AO2 SLP054 T01940056 $
PASK 172356Z AUTO 03017G21KT 10SM CLR 19/06 RMK AO2 SLPNO 6//// T01890056 10189 20161 $
PASK 172256Z AUTO 02017KT 10SM CLR 18/04 A2970 RMK AO2 SLP054 T01780044 $
PASK 172156Z AUTO 03019G26KT 10SM CLR 17/03 A2970 RMK AO2 PK WND 03026/2147 SLP054 T01720033 $
PASK 172056Z AUTO 04017KT 10SM CLR 17/02 A2971 RMK AO2 SLP057 T01720022 $
PASK 171956Z AUTO 03015G20KT 10SM CLR 17/02 A2971 RMK AO2 PK WND 03030/1918 SLP059 T01720017 $
PASK 171856Z AUTO 10SM CLR 17/03 A2971 RMK AO2 SLP057 T01670033 $
PASK 171756Z AUTO 01016G22KT 10SM CLR 17/06 RMK AO2 SLPNO 6//// T01670056 10172 20144 $
PASK 171656Z AUTO 01018G24KT 10SM CLR 17/07 A2973 RMK AO2 SLP064 T01720067 $
PASK 171556Z AUTO 01013KT 10SM CLR 17/07 A2974 RMK AO2 SLP068 T01720072 $
PASK 171456Z AUTO 36012KT 10SM CLR 16/07 A2974 RMK AO2 SLP068 6//// T01610067 $
PASK 171356Z AUTO 34009KT 10SM CLR 15/07 RMK AO2 SLPNO T01500067 $
PASK 171256Z AUTO 35009KT 10SM CLR 15/07 A2976 RMK AO2 SLP074 T01500072 $
PASK 171156Z AUTO 34008KT 10SM CLR 15/07 A2976 RMK AO2 SLP076 6//// 7//// T01500067 10206 20150 58001 $
PASK 171056Z AUTO 34008KT 10SM CLR 16/06 A2977 RMK AO2 SLP078 T01610061 $
PASK 170956Z AUTO 36007KT 10SM CLR 17/06 A2977 RMK AO2 SLP080 T01670061 $
PASK 170856Z AUTO 02010KT 10SM CLR 18/07 A2977 RMK AO2 SLP077 6//// T01830072 402390117 53002 $
PASK 170756Z AUTO 10SM CLR 19/09 A2977 RMK AO2 SLP077 T01940094 $
PASK 170656Z AUTO 29007KT 10SM CLR 19/10 A2976 RMK AO2 SLP074 T01890100 $
PASK 170556Z AUTO 28010G16KT 10SM CLR 21/08 A2976 RMK AO2 SLP075 6//// T02060083 10239 20206 56008 $
PASK 170456Z AUTO 29013G19KT 10SM CLR 22/07 A2977 RMK AO2 SLP078 T02170072 $
PASK 170356Z AUTO 29012G17KT 10SM CLR 23/08 A2978 RMK AO2 SLP080 T02280078 $
PASK 170256Z AUTO 31009KT 10SM CLR 23/05 A2979 RMK AO2 SLP083 6//// T02330050 56017 $
PASK 170156Z AUTO 23010KT 10SM CLR 22/10 A2980 RMK AO2 SLP087 T02170100 $
PASK 162356Z AUTO 25010KT 10SM CLR 21/09 A2984 RMK AO2 SLP101 6//// T02110089 10211 20172 $
PASK 162256Z AUTO 24010KT 10SM CLR 21/09 A2985 RMK AO2 SLP106 T02110094 $
PASK 162156Z AUTO 23009KT 10SM CLR 21/08 RMK AO2 SLPNO T02060078 $
PASK 162056Z AUTO 26008KT 10SM CLR 20/07 A2988 RMK AO2 SLP115 6//// T02000072 58006 $
PASK 161956Z AUTO 23006KT 10SM CLR 19/10 A2988 RMK AO2 SLP117 T01940100 $
PASK 161856Z AUTO 08003KT 10SM CLR 18/06 A2989 RMK AO2 SLP119 T01780061 $
PASK 161556Z AUTO 00000KT 7SM CLR 14/08 A2991 RMK AO2 SLP124 T01440078 $